sensor_id;sensor_type;location;lat;lon;timestamp;temperature;humidity
25933;DHT22;13731;51.166;4.474;2023-04-16T00:00:51;9.50;1.00
25933;DHT22;13731;51.166;4.474;2023-04-16T00:03:17;9.50;1.00
25933;DHT22;13731;51.166;4.474;2023-04-16T00:05:42;9.40;1.00
25933;DHT22;13731;51.166;4.474;2023-04-16T00:08:08;9.30;22.30
25933;DHT22;13731;51.166;4.474;2023-04-16T00:10:34;9.50;1.00
25933;DHT22;13731;51.166;4.474;2023-04-16T00:13:00;9.60;1.00
25933;DHT22;13731;51.166;4.474;2023-04-16T00:15:26;9.50;1.00
25933;DHT22;13731;51.166;4.474;2023-04-16T00:17:52;9.60;1.00
25933;DHT22;13731;51.166;4.474;2023-04-16T00:20:18;9.60;1.00
25933;DHT22;13731;51.166;4.474;2023-04-16T00:22:45;9.70;99.90
25933;DHT22;13731;51.166;4.474;2023-04-16T00:25:12;9.60;1.00
25933;DHT22;13731;51.166;4.474;2023-04-16T00:27:39;9.70;99.90
25933;DHT22;13731;51.166;4.474;2023-04-16T00:30:05;9.80;99.90
25933;DHT22;13731;51.166;4.474;2023-04-16T00:32:32;9.70;99.90
25933;DHT22;13731;51.166;4.474;2023-04-16T00:34:57;9.80;99.90
25933;DHT22;13731;51.166;4.474;2023-04-16T00:37:23;9.70;99.90
25933;DHT22;13731;51.166;4.474;2023-04-16T00:39:49;9.80;99.90
25933;DHT22;13731;51.166;4.474;2023-04-16T00:42:15;9.70;1.00
25933;DHT22;13731;51.166;4.474;2023-04-16T00:44:41;9.60;1.00
25933;DHT22;13731;51.166;4.474;2023-04-16T00:47:07;9.50;1.00
25933;DHT22;13731;51.166;4.474;2023-04-16T00:49:33;9.60;1.00
25933;DHT22;13731;51.166;4.474;2023-04-16T00:52:00;9.50;1.00
25933;DHT22;13731;51.166;4.474;2023-04-16T00:54:27;9.50;1.00
25933;DHT22;13731;51.166;4.474;2023-04-16T00:56:54;9.50;1.00
25933;DHT22;13731;51.166;4.474;2023-04-16T00:59:21;9.50;1.00
25933;DHT22;13731;51.166;4.474;2023-04-16T01:01:47;9.40;99.90
25933;DHT22;13731;51.166;4.474;2023-04-16T01:04:13;9.50;33.70
25933;DHT22;13731;51.166;4.474;2023-04-16T01:06:39;9.50;1.00
25933;DHT22;13731;51.166;4.474;2023-04-16T01:09:05;9.60;1.00
25933;DHT22;13731;51.166;4.474;2023-04-16T01:11:31;9.50;31.20
25933;DHT22;13731;51.166;4.474;2023-04-16T01:13:57;9.50;27.00
25933;DHT22;13731;51.166;4.474;2023-04-16T01:16:23;9.60;1.00
25933;DHT22;13731;51.166;4.474;2023-04-16T01:18:51;9.60;1.00
25933;DHT22;13731;51.166;4.474;2023-04-16T01:21:17;9.70;1.00
25933;DHT22;13731;51.166;4.474;2023-04-16T01:23:43;9.70;1.00
25933;DHT22;13731;51.166;4.474;2023-04-16T01:26:09;9.80;1.00
25933;DHT22;13731;51.166;4.474;2023-04-16T01:28:35;9.70;1.00
25933;DHT22;13731;51.166;4.474;2023-04-16T01:31:01;9.60;1.00
25933;DHT22;13731;51.166;4.474;2023-04-16T01:33:41;9.60;34.20
25933;DHT22;13731;51.166;4.474;2023-04-16T01:36:10;9.60;56.80
25933;DHT22;13731;51.166;4.474;2023-04-16T01:38:36;9.60;21.50
25933;DHT22;13731;51.166;4.474;2023-04-16T01:41:02;9.70;1.00
25933;DHT22;13731;51.166;4.474;2023-04-16T01:43:28;9.80;1.00
25933;DHT22;13731;51.166;4.474;2023-04-16T01:46:12;9.80;1.00
25933;DHT22;13731;51.166;4.474;2023-04-16T01:48:38;9.90;1.00
25933;DHT22;13731;51.166;4.474;2023-04-16T01:51:04;9.80;1.00
25933;DHT22;13731;51.166;4.474;2023-04-16T01:53:30;9.90;1.00
25933;DHT22;13731;51.166;4.474;2023-04-16T01:55:56;10.00;1.00
25933;DHT22;13731;51.166;4.474;2023-04-16T01:58:22;9.90;1.00
25933;DHT22;13731;51.166;4.474;2023-04-16T02:00:48;9.90;1.00
25933;DHT22;13731;51.166;4.474;2023-04-16T02:03:14;10.00;1.00
25933;DHT22;13731;51.166;4.474;2023-04-16T02:05:42;10.00;1.00
25933;DHT22;13731;51.166;4.474;2023-04-16T02:08:08;9.90;1.00
25933;DHT22;13731;51.166;4.474;2023-04-16T02:10:34;9.90;1.00
25933;DHT22;13731;51.166;4.474;2023-04-16T02:13:01;9.90;1.00
25933;DHT22;13731;51.166;4.474;2023-04-16T02:15:27;9.80;99.90
25933;DHT22;13731;51.166;4.474;2023-04-16T02:17:53;9.90;43.90
25933;DHT22;13731;51.166;4.474;2023-04-16T02:20:22;9.80;99.90
25933;DHT22;13731;51.166;4.474;2023-04-16T02:22:56;9.90;99.90
25933;DHT22;13731;51.166;4.474;2023-04-16T02:25:23;9.80;99.90
25933;DHT22;13731;51.166;4.474;2023-04-16T02:27:51;10.00;98.90
25933;DHT22;13731;51.166;4.474;2023-04-16T02:30:38;9.80;99.90
25933;DHT22;13731;51.166;4.474;2023-04-16T02:33:05;9.80;99.90
25933;DHT22;13731;51.166;4.474;2023-04-16T02:35:37;9.90;99.90
25933;DHT22;13731;51.166;4.474;2023-04-16T02:38:04;10.00;99.90
25933;DHT22;13731;51.166;4.474;2023-04-16T02:40:30;9.80;1.00
25933;DHT22;13731;51.166;4.474;2023-04-16T02:42:57;9.90;1.00
25933;DHT22;13731;51.166;4.474;2023-04-16T02:45:23;10.00;1.00
25933;DHT22;13731;51.166;4.474;2023-04-16T02:47:49;10.00;99.90
25933;DHT22;13731;51.166;4.474;2023-04-16T02:50:16;9.90;1.00
25933;DHT22;13731;51.166;4.474;2023-04-16T02:52:42;9.90;1.00
25933;DHT22;13731;51.166;4.474;2023-04-16T02:55:09;9.90;1.00
25933;DHT22;13731;51.166;4.474;2023-04-16T02:57:35;9.90;1.00
25933;DHT22;13731;51.166;4.474;2023-04-16T03:00:01;10.00;1.00
25933;DHT22;13731;51.166;4.474;2023-04-16T03:02:29;10.10;1.00
25933;DHT22;13731;51.166;4.474;2023-04-16T03:04:56;10.00;1.00
25933;DHT22;13731;51.166;4.474;2023-04-16T03:07:22;9.90;1.00
25933;DHT22;13731;51.166;4.474;2023-04-16T03:09:47;9.90;99.90
25933;DHT22;13731;51.166;4.474;2023-04-16T03:12:13;9.80;99.90
25933;DHT22;13731;51.166;4.474;2023-04-16T03:14:40;9.70;1.00
25933;DHT22;13731;51.166;4.474;2023-04-16T03:17:06;9.90;99.90
25933;DHT22;13731;51.166;4.474;2023-04-16T03:19:31;9.70;1.00
25933;DHT22;13731;51.166;4.474;2023-04-16T03:21:57;9.80;1.00
25933;DHT22;13731;51.166;4.474;2023-04-16T03:24:23;9.90;99.90
25933;DHT22;13731;51.166;4.474;2023-04-16T03:26:49;9.90;99.90
25933;DHT22;13731;51.166;4.474;2023-04-16T03:29:15;9.90;99.90
25933;DHT22;13731;51.166;4.474;2023-04-16T03:31:41;9.80;1.00
25933;DHT22;13731;51.166;4.474;2023-04-16T03:34:07;9.70;99.90
25933;DHT22;13731;51.166;4.474;2023-04-16T03:36:33;9.60;1.00
25933;DHT22;13731;51.166;4.474;2023-04-16T03:39:00;9.50;1.00
25933;DHT22;13731;51.166;4.474;2023-04-16T03:41:26;9.70;99.90
25933;DHT22;13731;51.166;4.474;2023-04-16T03:43:52;9.80;99.90
25933;DHT22;13731;51.166;4.474;2023-04-16T03:46:18;9.60;99.90
25933;DHT22;13731;51.166;4.474;2023-04-16T03:48:44;9.70;99.90
25933;DHT22;13731;51.166;4.474;2023-04-16T03:51:11;9.60;99.90
25933;DHT22;13731;51.166;4.474;2023-04-16T03:53:38;9.60;99.90
25933;DHT22;13731;51.166;4.474;2023-04-16T03:56:04;9.60;99.90
25933;DHT22;13731;51.166;4.474;2023-04-16T03:58:30;9.60;99.90
25933;DHT22;13731;51.166;4.474;2023-04-16T04:00:56;9.50;99.90
25933;DHT22;13731;51.166;4.474;2023-04-16T04:03:23;9.40;1.00
25933;DHT22;13731;51.166;4.474;2023-04-16T04:05:52;9.50;99.90
25933;DHT22;13731;51.166;4.474;2023-04-16T04:08:24;9.50;99.90
25933;DHT22;13731;51.166;4.474;2023-04-16T04:10:51;9.50;99.90
25933;DHT22;13731;51.166;4.474;2023-04-16T04:13:19;9.70;1.00
25933;DHT22;13731;51.166;4.474;2023-04-16T04:15:53;9.60;1.00
25933;DHT22;13731;51.166;4.474;2023-04-16T04:18:20;9.50;99.90
25933;DHT22;13731;51.166;4.474;2023-04-16T04:20:46;9.40;99.90
25933;DHT22;13731;51.166;4.474;2023-04-16T04:23:15;9.40;99.90
25933;DHT22;13731;51.166;4.474;2023-04-16T04:25:41;9.40;99.90
25933;DHT22;13731;51.166;4.474;2023-04-16T04:28:06;9.50;99.90
25933;DHT22;13731;51.166;4.474;2023-04-16T04:30:32;9.60;99.90
25933;DHT22;13731;51.166;4.474;2023-04-16T04:33:01;9.50;99.90
25933;DHT22;13731;51.166;4.474;2023-04-16T04:35:27;9.60;99.90
25933;DHT22;13731;51.166;4.474;2023-04-16T04:37:53;9.70;99.90
25933;DHT22;13731;51.166;4.474;2023-04-16T04:40:20;9.80;1.00
25933;DHT22;13731;51.166;4.474;2023-04-16T04:42:46;9.80;1.00
25933;DHT22;13731;51.166;4.474;2023-04-16T04:45:12;9.70;1.00
25933;DHT22;13731;51.166;4.474;2023-04-16T04:47:40;9.70;1.00
25933;DHT22;13731;51.166;4.474;2023-04-16T04:50:06;9.50;42.70
25933;DHT22;13731;51.166;4.474;2023-04-16T04:52:32;9.50;99.90
25933;DHT22;13731;51.166;4.474;2023-04-16T04:55:00;9.70;1.00
25933;DHT22;13731;51.166;4.474;2023-04-16T04:57:29;9.70;1.00
25933;DHT22;13731;51.166;4.474;2023-04-16T04:59:55;9.80;99.90
25933;DHT22;13731;51.166;4.474;2023-04-16T05:02:21;9.80;99.90
25933;DHT22;13731;51.166;4.474;2023-04-16T05:04:47;9.60;1.00
25933;DHT22;13731;51.166;4.474;2023-04-16T05:07:13;9.60;1.00
25933;DHT22;13731;51.166;4.474;2023-04-16T05:09:39;9.60;1.00
25933;DHT22;13731;51.166;4.474;2023-04-16T05:12:05;9.60;1.00
25933;DHT22;13731;51.166;4.474;2023-04-16T05:14:33;9.60;1.00
25933;DHT22;13731;51.166;4.474;2023-04-16T05:17:00;9.50;99.90
25933;DHT22;13731;51.166;4.474;2023-04-16T05:19:26;9.60;99.90
25933;DHT22;13731;51.166;4.474;2023-04-16T05:21:53;9.60;99.90
25933;DHT22;13731;51.166;4.474;2023-04-16T05:24:19;9.80;1.00
25933;DHT22;13731;51.166;4.474;2023-04-16T05:26:45;9.70;1.00
25933;DHT22;13731;51.166;4.474;2023-04-16T05:29:11;9.60;99.90
25933;DHT22;13731;51.166;4.474;2023-04-16T05:31:39;9.50;1.00
25933;DHT22;13731;51.166;4.474;2023-04-16T05:34:08;9.40;99.90
25933;DHT22;13731;51.166;4.474;2023-04-16T05:36:35;9.40;21.80
25933;DHT22;13731;51.166;4.474;2023-04-16T05:39:01;9.60;1.00
25933;DHT22;13731;51.166;4.474;2023-04-16T05:41:27;9.40;99.90
25933;DHT22;13731;51.166;4.474;2023-04-16T05:43:52;9.20;1.00
25933;DHT22;13731;51.166;4.474;2023-04-16T05:46:18;9.30;1.00
25933;DHT22;13731;51.166;4.474;2023-04-16T05:48:44;9.20;1.00
25933;DHT22;13731;51.166;4.474;2023-04-16T05:51:10;9.20;99.90
25933;DHT22;13731;51.166;4.474;2023-04-16T05:53:36;9.40;1.00
25933;DHT22;13731;51.166;4.474;2023-04-16T05:56:02;9.50;99.90
25933;DHT22;13731;51.166;4.474;2023-04-16T05:58:28;9.30;90.20
25933;DHT22;13731;51.166;4.474;2023-04-16T06:00:54;9.50;99.90
25933;DHT22;13731;51.166;4.474;2023-04-16T06:03:20;9.40;99.90
25933;DHT22;13731;51.166;4.474;2023-04-16T06:05:45;9.20;99.90
25933;DHT22;13731;51.166;4.474;2023-04-16T06:08:11;9.30;99.90
25933;DHT22;13731;51.166;4.474;2023-04-16T06:10:37;9.30;1.00
25933;DHT22;13731;51.166;4.474;2023-04-16T06:13:03;9.30;99.90
25933;DHT22;13731;51.166;4.474;2023-04-16T06:15:29;9.30;99.90
25933;DHT22;13731;51.166;4.474;2023-04-16T06:17:55;9.30;99.90
25933;DHT22;13731;51.166;4.474;2023-04-16T06:20:21;9.40;1.00
25933;DHT22;13731;51.166;4.474;2023-04-16T06:22:47;9.40;99.90
25933;DHT22;13731;51.166;4.474;2023-04-16T06:25:13;9.30;99.90
25933;DHT22;13731;51.166;4.474;2023-04-16T06:27:39;9.20;49.80
25933;DHT22;13731;51.166;4.474;2023-04-16T06:30:09;9.30;99.90
25933;DHT22;13731;51.166;4.474;2023-04-16T06:32:36;9.50;1.00
25933;DHT22;13731;51.166;4.474;2023-04-16T06:35:01;9.50;99.90
25933;DHT22;13731;51.166;4.474;2023-04-16T06:37:27;9.50;1.00
25933;DHT22;13731;51.166;4.474;2023-04-16T06:39:53;9.50;1.00
25933;DHT22;13731;51.166;4.474;2023-04-16T06:42:19;9.40;99.90
25933;DHT22;13731;51.166;4.474;2023-04-16T06:44:45;9.30;1.00
25933;DHT22;13731;51.166;4.474;2023-04-16T06:47:11;9.30;1.00
25933;DHT22;13731;51.166;4.474;2023-04-16T06:49:37;9.20;43.30
25933;DHT22;13731;51.166;4.474;2023-04-16T06:52:04;9.20;99.90
25933;DHT22;13731;51.166;4.474;2023-04-16T06:54:30;9.00;99.90
25933;DHT22;13731;51.166;4.474;2023-04-16T06:56:56;8.90;1.00
25933;DHT22;13731;51.166;4.474;2023-04-16T06:59:22;8.90;1.00
25933;DHT22;13731;51.166;4.474;2023-04-16T07:01:48;9.00;1.00
25933;DHT22;13731;51.166;4.474;2023-04-16T07:04:14;9.10;1.00
25933;DHT22;13731;51.166;4.474;2023-04-16T07:06:40;9.10;1.00
25933;DHT22;13731;51.166;4.474;2023-04-16T07:09:06;9.10;1.00
25933;DHT22;13731;51.166;4.474;2023-04-16T07:11:31;9.20;1.00
25933;DHT22;13731;51.166;4.474;2023-04-16T07:13:57;9.40;1.00
25933;DHT22;13731;51.166;4.474;2023-04-16T07:16:23;9.30;1.00
25933;DHT22;13731;51.166;4.474;2023-04-16T07:18:49;9.40;99.90
25933;DHT22;13731;51.166;4.474;2023-04-16T07:21:15;9.40;99.90
25933;DHT22;13731;51.166;4.474;2023-04-16T07:23:41;9.40;99.90
25933;DHT22;13731;51.166;4.474;2023-04-16T07:26:07;9.30;1.00
25933;DHT22;13731;51.166;4.474;2023-04-16T07:28:33;9.30;1.00
25933;DHT22;13731;51.166;4.474;2023-04-16T07:30:59;9.30;1.00
25933;DHT22;13731;51.166;4.474;2023-04-16T07:33:25;9.30;1.00
25933;DHT22;13731;51.166;4.474;2023-04-16T07:35:51;9.30;1.00
25933;DHT22;13731;51.166;4.474;2023-04-16T07:38:17;9.20;1.00
25933;DHT22;13731;51.166;4.474;2023-04-16T07:40:43;9.20;1.00
25933;DHT22;13731;51.166;4.474;2023-04-16T07:43:09;9.30;1.00
25933;DHT22;13731;51.166;4.474;2023-04-16T07:45:35;9.20;1.00
25933;DHT22;13731;51.166;4.474;2023-04-16T07:48:01;9.20;1.00
25933;DHT22;13731;51.166;4.474;2023-04-16T07:50:27;9.30;1.00
25933;DHT22;13731;51.166;4.474;2023-04-16T07:52:53;9.30;1.00
25933;DHT22;13731;51.166;4.474;2023-04-16T07:55:18;9.30;1.00
25933;DHT22;13731;51.166;4.474;2023-04-16T07:57:44;9.30;1.00
25933;DHT22;13731;51.166;4.474;2023-04-16T08:00:11;9.50;1.00
25933;DHT22;13731;51.166;4.474;2023-04-16T08:02:40;9.50;1.00
25933;DHT22;13731;51.166;4.474;2023-04-16T08:05:06;9.60;99.90
25933;DHT22;13731;51.166;4.474;2023-04-16T08:07:32;9.60;99.90
25933;DHT22;13731;51.166;4.474;2023-04-16T08:09:58;9.70;99.90
25933;DHT22;13731;51.166;4.474;2023-04-16T08:12:24;9.70;1.00
25933;DHT22;13731;51.166;4.474;2023-04-16T08:14:50;9.70;1.00
25933;DHT22;13731;51.166;4.474;2023-04-16T08:17:16;9.60;94.30
25933;DHT22;13731;51.166;4.474;2023-04-16T08:19:45;9.50;99.90
25933;DHT22;13731;51.166;4.474;2023-04-16T08:22:12;9.60;99.90
25933;DHT22;13731;51.166;4.474;2023-04-16T08:24:38;9.60;99.90
25933;DHT22;13731;51.166;4.474;2023-04-16T08:27:04;9.60;91.40
25933;DHT22;13731;51.166;4.474;2023-04-16T08:29:30;9.40;99.90
25933;DHT22;13731;51.166;4.474;2023-04-16T08:31:57;9.50;99.90
25933;DHT22;13731;51.166;4.474;2023-04-16T08:34:23;9.50;99.90
25933;DHT22;13731;51.166;4.474;2023-04-16T08:36:49;9.30;99.90
25933;DHT22;13731;51.166;4.474;2023-04-16T08:39:15;9.40;99.90
25933;DHT22;13731;51.166;4.474;2023-04-16T08:41:43;9.40;99.90
25933;DHT22;13731;51.166;4.474;2023-04-16T08:44:15;9.40;99.90
25933;DHT22;13731;51.166;4.474;2023-04-16T08:46:44;9.40;1.00
25933;DHT22;13731;51.166;4.474;2023-04-16T08:49:15;9.70;99.90
25933;DHT22;13731;51.166;4.474;2023-04-16T08:51:49;9.70;99.90
25933;DHT22;13731;51.166;4.474;2023-04-16T08:54:38;9.80;1.00
25933;DHT22;13731;51.166;4.474;2023-04-16T08:57:09;9.80;1.00
25933;DHT22;13731;51.166;4.474;2023-04-16T08:59:37;9.90;99.90
25933;DHT22;13731;51.166;4.474;2023-04-16T09:02:04;9.90;99.90
25933;DHT22;13731;51.166;4.474;2023-04-16T09:04:31;9.90;1.00
25933;DHT22;13731;51.166;4.474;2023-04-16T09:06:58;10.00;1.00
25933;DHT22;13731;51.166;4.474;2023-04-16T09:09:27;10.00;81.40
25933;DHT22;13731;51.166;4.474;2023-04-16T09:11:55;10.20;78.60
25933;DHT22;13731;51.166;4.474;2023-04-16T09:14:21;10.20;99.90
25933;DHT22;13731;51.166;4.474;2023-04-16T09:16:47;10.00;99.90
25933;DHT22;13731;51.166;4.474;2023-04-16T09:19:14;10.10;99.90
25933;DHT22;13731;51.166;4.474;2023-04-16T09:21:41;10.10;1.00
25933;DHT22;13731;51.166;4.474;2023-04-16T09:24:08;10.10;1.00
25933;DHT22;13731;51.166;4.474;2023-04-16T09:26:35;10.10;99.90
25933;DHT22;13731;51.166;4.474;2023-04-16T09:29:01;10.10;1.00
25933;DHT22;13731;51.166;4.474;2023-04-16T09:31:27;10.10;1.00
25933;DHT22;13731;51.166;4.474;2023-04-16T09:34:02;10.10;1.00
25933;DHT22;13731;51.166;4.474;2023-04-16T09:36:28;10.30;99.90
25933;DHT22;13731;51.166;4.474;2023-04-16T09:38:54;10.30;1.00
25933;DHT22;13731;51.166;4.474;2023-04-16T09:41:26;10.30;1.00
25933;DHT22;13731;51.166;4.474;2023-04-16T09:43:57;10.30;1.00
25933;DHT22;13731;51.166;4.474;2023-04-16T09:46:28;10.40;99.90
25933;DHT22;13731;51.166;4.474;2023-04-16T09:48:54;10.40;1.00
25933;DHT22;13731;51.166;4.474;2023-04-16T09:51:20;10.30;99.90
25933;DHT22;13731;51.166;4.474;2023-04-16T09:53:46;10.40;1.00
25933;DHT22;13731;51.166;4.474;2023-04-16T09:56:16;10.50;99.90
25933;DHT22;13731;51.166;4.474;2023-04-16T09:58:42;10.60;1.00
25933;DHT22;13731;51.166;4.474;2023-04-16T10:01:11;10.60;1.00
25933;DHT22;13731;51.166;4.474;2023-04-16T10:03:38;10.50;1.00
25933;DHT22;13731;51.166;4.474;2023-04-16T10:06:15;10.40;99.90
25933;DHT22;13731;51.166;4.474;2023-04-16T10:08:45;10.40;99.90
25933;DHT22;13731;51.166;4.474;2023-04-16T10:11:11;10.50;1.00
25933;DHT22;13731;51.166;4.474;2023-04-16T10:13:38;10.50;99.90
25933;DHT22;13731;51.166;4.474;2023-04-16T10:16:04;10.70;99.90
25933;DHT22;13731;51.166;4.474;2023-04-16T10:18:30;10.50;1.00
25933;DHT22;13731;51.166;4.474;2023-04-16T10:20:57;10.70;22.50
25933;DHT22;13731;51.166;4.474;2023-04-16T10:23:23;10.80;1.00
25933;DHT22;13731;51.166;4.474;2023-04-16T10:25:49;11.00;99.90
25933;DHT22;13731;51.166;4.474;2023-04-16T10:28:15;11.00;6.70
25933;DHT22;13731;51.166;4.474;2023-04-16T16:16:55;11.50;1.00
25933;DHT22;13731;51.166;4.474;2023-04-16T16:19:21;11.50;1.00
25933;DHT22;13731;51.166;4.474;2023-04-16T16:23:11;11.80;99.90
25933;DHT22;13731;51.166;4.474;2023-04-16T16:25:37;12.10;1.00
25933;DHT22;13731;51.166;4.474;2023-04-16T16:28:04;12.30;99.90
25933;DHT22;13731;51.166;4.474;2023-04-16T16:30:31;12.40;1.00
25933;DHT22;13731;51.166;4.474;2023-04-16T16:32:57;12.50;1.00
25933;DHT22;13731;51.166;4.474;2023-04-16T16:35:23;12.30;8.80
25933;DHT22;13731;51.166;4.474;2023-04-16T16:37:50;12.30;1.00
25933;DHT22;13731;51.166;4.474;2023-04-16T16:40:20;12.30;51.50
25933;DHT22;13731;51.166;4.474;2023-04-16T16:42:46;12.40;30.70
25933;DHT22;13731;51.166;4.474;2023-04-16T16:45:12;12.70;99.90
25933;DHT22;13731;51.166;4.474;2023-04-16T16:47:38;12.80;1.00
25933;DHT22;13731;51.166;4.474;2023-04-16T16:50:04;13.00;1.00
25933;DHT22;13731;51.166;4.474;2023-04-16T16:52:30;13.00;1.00
25933;DHT22;13731;51.166;4.474;2023-04-16T16:54:56;12.80;1.00
25933;DHT22;13731;51.166;4.474;2023-04-16T16:57:22;12.80;1.00
25933;DHT22;13731;51.166;4.474;2023-04-16T16:59:49;12.80;1.00
25933;DHT22;13731;51.166;4.474;2023-04-16T17:02:19;12.70;14.80
25933;DHT22;13731;51.166;4.474;2023-04-16T17:04:45;12.60;93.50
25933;DHT22;13731;51.166;4.474;2023-04-16T17:07:11;12.60;68.40
25933;DHT22;13731;51.166;4.474;2023-04-16T17:09:36;12.70;1.00
25933;DHT22;13731;51.166;4.474;2023-04-16T17:12:04;12.70;41.30
25933;DHT22;13731;51.166;4.474;2023-04-16T17:14:31;12.50;99.90
25933;DHT22;13731;51.166;4.474;2023-04-16T17:16:57;12.50;99.90
25933;DHT22;13731;51.166;4.474;2023-04-16T17:19:23;12.40;1.00
25933;DHT22;13731;51.166;4.474;2023-04-16T17:21:49;12.40;1.00
25933;DHT22;13731;51.166;4.474;2023-04-16T17:24:15;12.40;99.90
25933;DHT22;13731;51.166;4.474;2023-04-16T17:26:42;12.50;99.90
25933;DHT22;13731;51.166;4.474;2023-04-16T17:29:08;12.60;99.90
25933;DHT22;13731;51.166;4.474;2023-04-16T17:31:34;12.60;94.90
25933;DHT22;13731;51.166;4.474;2023-04-16T17:34:00;12.50;99.90
25933;DHT22;13731;51.166;4.474;2023-04-16T17:36:29;12.30;99.90
25933;DHT22;13731;51.166;4.474;2023-04-16T17:38:56;12.10;1.00
25933;DHT22;13731;51.166;4.474;2023-04-16T17:41:22;12.10;1.00
25933;DHT22;13731;51.166;4.474;2023-04-16T17:43:49;12.20;1.00
25933;DHT22;13731;51.166;4.474;2023-04-16T17:46:15;12.20;1.00
25933;DHT22;13731;51.166;4.474;2023-04-16T17:48:41;12.20;1.00
25933;DHT22;13731;51.166;4.474;2023-04-16T17:51:12;12.30;1.00
25933;DHT22;13731;51.166;4.474;2023-04-16T17:53:39;12.40;99.90
25933;DHT22;13731;51.166;4.474;2023-04-16T17:56:07;12.30;1.00
25933;DHT22;13731;51.166;4.474;2023-04-16T17:58:33;12.40;99.90
25933;DHT22;13731;51.166;4.474;2023-04-16T18:01:00;12.10;1.00
25933;DHT22;13731;51.166;4.474;2023-04-16T18:03:26;12.20;1.00
25933;DHT22;13731;51.166;4.474;2023-04-16T18:05:52;12.20;1.00
25933;DHT22;13731;51.166;4.474;2023-04-16T18:08:18;12.20;1.00
25933;DHT22;13731;51.166;4.474;2023-04-16T18:10:44;12.10;1.00
25933;DHT22;13731;51.166;4.474;2023-04-16T18:13:10;12.00;99.90
25933;DHT22;13731;51.166;4.474;2023-04-16T18:15:36;11.80;1.00
25933;DHT22;13731;51.166;4.474;2023-04-16T18:18:06;11.90;99.90
25933;DHT22;13731;51.166;4.474;2023-04-16T18:20:33;11.90;99.90
25933;DHT22;13731;51.166;4.474;2023-04-16T18:22:59;11.80;99.90
25933;DHT22;13731;51.166;4.474;2023-04-16T18:25:24;11.60;1.00
25933;DHT22;13731;51.166;4.474;2023-04-16T18:27:50;11.60;99.90
25933;DHT22;13731;51.166;4.474;2023-04-16T18:30:16;11.70;19.00
25933;DHT22;13731;51.166;4.474;2023-04-16T18:32:44;11.70;1.00
25933;DHT22;13731;51.166;4.474;2023-04-16T18:35:10;11.90;1.00
25933;DHT22;13731;51.166;4.474;2023-04-16T18:37:35;11.90;99.90
25933;DHT22;13731;51.166;4.474;2023-04-16T18:40:02;12.00;99.90
25933;DHT22;13731;51.166;4.474;2023-04-16T18:42:30;11.90;99.90
25933;DHT22;13731;51.166;4.474;2023-04-16T18:44:56;12.20;1.00
25933;DHT22;13731;51.166;4.474;2023-04-16T18:47:22;12.20;99.90
25933;DHT22;13731;51.166;4.474;2023-04-16T18:49:48;12.00;1.00
25933;DHT22;13731;51.166;4.474;2023-04-16T18:52:14;12.00;90.80
25933;DHT22;13731;51.166;4.474;2023-04-16T18:54:40;11.90;99.90
25933;DHT22;13731;51.166;4.474;2023-04-16T18:57:06;11.90;99.90
25933;DHT22;13731;51.166;4.474;2023-04-16T18:59:32;11.80;1.00
25933;DHT22;13731;51.166;4.474;2023-04-16T19:01:58;11.80;1.00
25933;DHT22;13731;51.166;4.474;2023-04-16T19:04:23;11.70;1.00
25933;DHT22;13731;51.166;4.474;2023-04-16T19:06:49;11.80;1.00
25933;DHT22;13731;51.166;4.474;2023-04-16T19:09:15;11.80;1.00
25933;DHT22;13731;51.166;4.474;2023-04-16T19:11:41;11.90;1.00
25933;DHT22;13731;51.166;4.474;2023-04-16T19:14:07;11.80;1.00
25933;DHT22;13731;51.166;4.474;2023-04-16T19:16:33;11.80;1.00
25933;DHT22;13731;51.166;4.474;2023-04-16T19:18:59;11.60;38.40
25933;DHT22;13731;51.166;4.474;2023-04-16T19:21:25;11.70;1.00
25933;DHT22;13731;51.166;4.474;2023-04-16T19:23:52;11.70;1.00
25933;DHT22;13731;51.166;4.474;2023-04-16T19:26:18;11.90;1.00
25933;DHT22;13731;51.166;4.474;2023-04-16T19:28:44;12.00;1.00
25933;DHT22;13731;51.166;4.474;2023-04-16T19:31:10;11.50;1.00
25933;DHT22;13731;51.166;4.474;2023-04-16T19:33:36;11.50;1.00
25933;DHT22;13731;51.166;4.474;2023-04-16T19:36:02;11.60;1.00
25933;DHT22;13731;51.166;4.474;2023-04-16T19:38:28;11.70;99.90
25933;DHT22;13731;51.166;4.474;2023-04-16T19:40:56;11.80;99.90
25933;DHT22;13731;51.166;4.474;2023-04-16T19:43:22;11.80;99.90
25933;DHT22;13731;51.166;4.474;2023-04-16T19:45:49;11.60;99.90
25933;DHT22;13731;51.166;4.474;2023-04-16T19:48:21;11.60;1.00
25933;DHT22;13731;51.166;4.474;2023-04-16T19:50:47;11.60;1.00
25933;DHT22;13731;51.166;4.474;2023-04-16T19:53:13;11.50;99.90
25933;DHT22;13731;51.166;4.474;2023-04-16T19:55:41;11.40;99.90
25933;DHT22;13731;51.166;4.474;2023-04-16T19:58:07;11.70;1.00
25933;DHT22;13731;51.166;4.474;2023-04-16T20:00:37;11.80;99.90
25933;DHT22;13731;51.166;4.474;2023-04-16T20:03:05;11.80;99.90
25933;DHT22;13731;51.166;4.474;2023-04-16T20:05:31;11.60;99.90
25933;DHT22;13731;51.166;4.474;2023-04-16T20:07:57;11.30;99.90
25933;DHT22;13731;51.166;4.474;2023-04-16T20:10:23;11.30;99.90
25933;DHT22;13731;51.166;4.474;2023-04-16T20:12:49;11.40;99.90
25933;DHT22;13731;51.166;4.474;2023-04-16T20:15:16;11.50;96.50
25933;DHT22;13731;51.166;4.474;2023-04-16T20:17:42;11.70;99.90
25933;DHT22;13731;51.166;4.474;2023-04-16T20:20:08;11.50;1.00
25933;DHT22;13731;51.166;4.474;2023-04-16T20:22:36;11.70;99.90
25933;DHT22;13731;51.166;4.474;2023-04-16T20:25:02;11.60;1.00
25933;DHT22;13731;51.166;4.474;2023-04-16T20:27:32;11.40;1.00
25933;DHT22;13731;51.166;4.474;2023-04-16T20:29:58;11.50;1.00
25933;DHT22;13731;51.166;4.474;2023-04-16T20:32:25;11.50;1.00
25933;DHT22;13731;51.166;4.474;2023-04-16T20:34:51;11.60;1.00
25933;DHT22;13731;51.166;4.474;2023-04-16T20:37:17;11.60;99.90
25933;DHT22;13731;51.166;4.474;2023-04-16T20:39:43;11.50;1.00
25933;DHT22;13731;51.166;4.474;2023-04-16T20:42:10;11.20;90.40
25933;DHT22;13731;51.166;4.474;2023-04-16T20:44:36;11.20;99.90
25933;DHT22;13731;51.166;4.474;2023-04-16T20:47:09;11.20;1.00
25933;DHT22;13731;51.166;4.474;2023-04-16T20:49:36;11.20;99.90
25933;DHT22;13731;51.166;4.474;2023-04-16T20:52:11;11.10;1.00
25933;DHT22;13731;51.166;4.474;2023-04-16T20:54:36;11.10;1.00
25933;DHT22;13731;51.166;4.474;2023-04-16T20:57:02;11.20;1.00
25933;DHT22;13731;51.166;4.474;2023-04-16T20:59:28;11.50;1.00
25933;DHT22;13731;51.166;4.474;2023-04-16T21:01:54;11.60;99.90
25933;DHT22;13731;51.166;4.474;2023-04-16T21:04:23;11.40;1.00
25933;DHT22;13731;51.166;4.474;2023-04-16T21:06:49;11.30;1.00
25933;DHT22;13731;51.166;4.474;2023-04-16T21:09:21;11.20;99.90
25933;DHT22;13731;51.166;4.474;2023-04-16T21:11:47;11.40;1.00
25933;DHT22;13731;51.166;4.474;2023-04-16T21:14:13;11.10;99.90
25933;DHT22;13731;51.166;4.474;2023-04-16T21:16:39;11.00;1.00
25933;DHT22;13731;51.166;4.474;2023-04-16T21:19:05;10.90;99.90
25933;DHT22;13731;51.166;4.474;2023-04-16T21:21:33;11.10;76.60
25933;DHT22;13731;51.166;4.474;2023-04-16T21:23:59;11.10;1.00
25933;DHT22;13731;51.166;4.474;2023-04-16T21:26:25;11.10;1.00
25933;DHT22;13731;51.166;4.474;2023-04-16T21:28:50;11.00;99.90
25933;DHT22;13731;51.166;4.474;2023-04-16T21:31:16;11.20;1.00